Time;durP1;ratioP1;P1;durP2;ratioP2;P2;SDS_P1;SDS_P2;PMS_P1;PMS_P2;Temp;Humidity;BMP_temperature;BMP_pressure;BME280_temperature;BME280_humidity;BME280_pressure;Samples;Min_cycle;Max_cycle;Signal;HPM_P1;HPM_P2
2023/07/19 08:49:20;;;;;;;7.93;3.50;;;;;;;19.57;85.50;101149.75;5070073;28;20817;-68
2023/07/19 08:51:46;;;;;;;7.53;3.10;;;;;;;19.62;86.03;101146.97;5069781;28;20033;-68
2023/07/19 08:54:12;;;;;;;8.55;3.35;;;;;;;19.66;81.26;101148.06;5068982;28;20484;-68
2023/07/19 08:56:38;;;;;;;12.70;3.10;;;;;;;19.80;83.83;101145.59;5050219;28;20040;-68
2023/07/19 08:59:05;;;;;;;10.38;3.30;;;;;;;19.95;80.98;101158.44;5049836;28;20029;-68
2023/07/19 09:01:30;;;;;;;8.80;2.97;;;;;;;20.07;79.17;101143.56;5051948;28;20037;-68
2023/07/19 09:03:56;;;;;;;7.45;3.20;;;;;;;20.06;74.08;101144.66;5069623;28;20025;-68
2023/07/19 09:06:28;;;;;;;8.35;3.35;;;;;;;20.12;74.77;101149.03;5068716;28;20429;-68
2023/07/19 09:08:55;;;;;;;7.90;2.95;;;;;;;20.24;74.18;101149.50;5069068;28;20036;-68
2023/07/19 09:11:22;;;;;;;10.70;3.20;;;;;;;20.40;75.50;101150.25;5075715;28;20020;-68
2023/07/19 09:13:58;;;;;;;8.25;3.03;;;;;;;20.52;74.98;101145.22;5094044;28;20035;-70
2023/07/19 09:16:32;;;;;;;8.05;3.30;;;;;;;20.51;72.97;101153.75;5072879;28;20029;-68
2023/07/19 09:18:58;;;;;;;6.15;3.00;;;;;;;20.57;72.98;101149.06;5068324;28;20042;-68
2023/07/19 09:21:42;;;;;;;8.15;2.83;;;;;;;20.48;74.79;101146.91;5053714;28;20479;-69
2023/07/19 09:24:08;;;;;;;10.68;3.55;;;;;;;20.45;74.96;101152.97;5049717;28;20533;-68
2023/07/19 09:26:53;;;;;;;9.23;3.38;;;;;;;20.44;76.47;101145.84;5085783;28;20029;-68
2023/07/19 09:29:22;;;;;;;6.72;3.25;;;;;;;20.48;77.56;101146.09;5089551;28;20032;-69
2023/07/19 09:31:54;;;;;;;8.40;3.10;;;;;;;20.56;74.02;101141.91;5087476;28;20460;-69
2023/07/19 09:34:22;;;;;;;6.90;2.63;;;;;;;20.58;71.07;101140.53;5069149;28;20095;-67
2023/07/19 09:36:48;;;;;;;9.15;2.85;;;;;;;20.66;72.09;101142.69;5060440;28;20036;-68
2023/07/19 09:39:15;;;;;;;6.30;2.80;;;;;;;20.63;70.34;101142.41;5055542;28;20035;-67
2023/07/19 09:41:43;;;;;;;9.02;2.85;;;;;;;20.54;71.63;101142.19;5056855;28;20074;-66
2023/07/19 09:44:09;;;;;;;10.80;2.92;;;;;;;20.63;74.72;101148.72;5057418;28;20044;-66
2023/07/19 09:46:36;;;;;;;15.82;4.00;;;;;;;20.68;72.87;101154.25;5064729;28;20540;-67
2023/07/19 09:49:02;;;;;;;6.22;2.50;;;;;;;20.64;72.37;101144.88;5071588;28;20572;-67
2023/07/19 09:51:29;;;;;;;9.20;2.80;;;;;;;20.70;72.60;101148.44;5056144;28;20030;-67
2023/07/19 09:53:57;;;;;;;6.85;2.60;;;;;;;20.75;73.86;101151.16;5054702;28;20396;-66
2023/07/19 09:56:22;;;;;;;11.48;2.80;;;;;;;20.80;73.82;101144.78;5060290;28;20052;-67
2023/07/19 09:58:48;;;;;;;9.95;2.95;;;;;;;20.76;74.71;101144.56;5045607;28;20025;-67
2023/07/19 10:01:14;;;;;;;6.72;2.60;;;;;;;20.77;75.17;101137.13;5045160;28;20029;-69
2023/07/19 10:03:39;;;;;;;6.88;2.60;;;;;;;20.82;75.11;101148.06;5050873;28;20366;-70
2023/07/19 10:06:04;;;;;;;11.55;2.40;;;;;;;20.88;74.81;101142.25;5055358;28;20036;-70
2023/07/19 10:08:30;;;;;;;6.97;2.45;;;;;;;20.98;72.39;101143.28;5050571;28;20049;-70
2023/07/19 10:11:00;;;;;;;7.80;2.70;;;;;;;20.87;70.90;101148.03;5046225;28;20036;-68
2023/07/19 10:13:52;;;;;;;8.32;2.50;;;;;;;20.95;72.28;101144.66;5048251;28;20036;-69
2023/07/19 10:16:24;;;;;;;6.78;2.58;;;;;;;20.87;70.85;101145.28;5055141;28;20029;-69
2023/07/19 10:19:10;;;;;;;10.70;2.65;;;;;;;20.96;72.39;101146.31;5054460;28;20454;-72
2023/07/19 10:21:36;;;;;;;5.63;2.58;;;;;;;20.98;71.04;101146.84;5036626;28;20101;-70
2023/07/19 10:24:08;;;;;;;8.75;2.35;;;;;;;21.02;68.87;101144.34;5031576;28;20033;-70
2023/07/19 10:26:39;;;;;;;10.43;2.60;;;;;;;21.15;68.66;101156.59;5039196;28;20024;-71
2023/07/19 10:29:04;;;;;;;7.15;2.13;;;;;;;21.21;67.92;101149.94;5054613;28;20431;-70
2023/07/19 10:31:36;;;;;;;4.68;2.13;;;;;;;21.19;64.94;101152.97;5054667;28;20025;-78
2023/07/19 10:34:03;;;;;;;6.65;1.90;;;;;;;21.14;64.81;101144.78;5054588;28;20036;-67
2023/07/19 10:36:28;;;;;;;6.93;2.03;;;;;;;21.36;64.35;101137.97;5041267;28;20061;-67
2023/07/19 10:38:53;;;;;;;6.28;1.98;;;;;;;21.39;63.09;101143.72;5034485;28;20053;-67
2023/07/19 10:41:20;;;;;;;5.03;2.10;;;;;;;21.34;62.15;101145.69;5034802;28;20068;-67
2023/07/19 10:43:45;;;;;;;5.20;1.58;;;;;;;21.31;62.36;101141.59;5034280;28;20029;-67
2023/07/19 10:46:12;;;;;;;4.53;1.80;;;;;;;21.32;62.59;101143.25;5033762;28;20099;-67
2023/07/19 10:48:38;;;;;;;7.15;2.03;;;;;;;21.26;62.40;101155.41;5034341;28;20508;-69
2023/07/19 10:51:07;;;;;;;4.97;1.80;;;;;;;21.24;63.69;101132.84;5034523;28;20032;-67
2023/07/19 10:53:47;;;;;;;4.82;1.77;;;;;;;21.29;63.83;101142.97;5034457;28;20028;-67
2023/07/19 10:56:15;;;;;;;4.70;2.10;;;;;;;21.46;62.86;101139.81;5034509;28;20061;-68
2023/07/19 10:58:40;;;;;;;6.22;2.13;;;;;;;21.46;63.06;101135.09;5034400;28;20091;-67
2023/07/19 11:01:06;;;;;;;9.55;2.10;;;;;;;21.38;63.13;101136.56;5031722;28;20041;-68
2023/07/19 11:03:31;;;;;;;5.22;1.92;;;;;;;21.29;63.26;101132.81;5034484;28;20358;-67
2023/07/19 11:05:58;;;;;;;7.18;2.05;;;;;;;21.19;66.26;101150.22;5034145;28;20465;-68
2023/07/19 11:08:28;;;;;;;6.65;1.88;;;;;;;20.81;93.24;101155.50;5032857;28;20040;-68
2023/07/19 11:10:55;;;;;;;6.03;2.00;;;;;;;20.57;100.00;101149.88;5032845;28;20057;-67
2023/07/19 11:13:22;;;;;;;4.70;1.83;;;;;;;20.55;100.00;101141.09;5033907;28;20370;-67
2023/07/19 11:15:53;;;;;;;4.88;1.92;;;;;;;20.75;100.00;101145.66;5032532;28;20026;-68
2023/07/19 11:18:27;;;;;;;4.90;1.90;;;;;;;21.02;100.00;101134.16;5034078;28;20030;-67
2023/07/19 11:20:53;;;;;;;5.55;1.92;;;;;;;21.14;100.00;101138.47;5033668;28;20044;-68
2023/07/19 11:23:18;;;;;;;7.03;1.95;;;;;;;21.14;79.44;101132.97;5033989;28;20116;-68
2023/07/19 11:25:44;;;;;;;3.85;1.63;;;;;;;21.26;77.55;101136.16;5032579;28;20116;-68
2023/07/19 11:28:09;;;;;;;6.90;1.85;;;;;;;21.20;75.05;101123.56;5033454;28;20116;-68
2023/07/19 11:30:38;;;;;;;4.97;1.63;;;;;;;21.29;75.38;101123.72;5033879;28;20025;-68
2023/07/19 11:33:06;;;;;;;6.65;1.80;;;;;;;21.25;71.36;101131.75;5032103;28;20101;-67
2023/07/19 11:35:32;;;;;;;2.95;1.42;;;;;;;21.36;76.06;101130.53;5033755;28;20069;-68
2023/07/19 11:37:58;;;;;;;5.82;1.65;;;;;;;21.49;67.69;101122.69;5033630;28;20055;-68
2023/07/19 11:40:24;;;;;;;4.28;1.60;;;;;;;21.52;64.56;101122.16;5033613;28;20127;-68
2023/07/19 11:42:53;;;;;;;5.75;1.73;;;;;;;21.80;69.15;101125.13;5033289;28;20041;-67
2023/07/19 11:45:21;;;;;;;3.92;1.73;;;;;;;21.92;66.63;101117.25;5033495;28;20033;-68
2023/07/19 11:47:52;;;;;;;5.15;1.50;;;;;;;22.05;61.75;101116.53;5033283;28;20049;-67
2023/07/19 11:50:17;;;;;;;4.70;1.40;;;;;;;22.13;62.51;101115.03;5033711;28;20032;-68
2023/07/19 11:52:48;;;;;;;2.42;1.50;;;;;;;22.09;60.70;101125.84;5032092;28;20077;-67
2023/07/19 11:55:15;;;;;;;4.03;1.58;;;;;;;21.94;58.82;101120.53;5033862;28;20430;-67
2023/07/19 11:57:43;;;;;;;2.88;1.30;;;;;;;21.83;60.25;101127.28;5033815;28;20028;-67
2023/07/19 12:00:10;;;;;;;7.45;1.85;;;;;;;21.92;62.01;101125.50;5033022;28;20148;-68
2023/07/19 12:02:36;;;;;;;4.63;1.77;;;;;;;22.03;60.57;101124.28;5032146;28;20025;-68
2023/07/19 12:05:05;;;;;;;3.83;1.58;;;;;;;22.22;59.25;101127.06;5057519;28;20029;-68
2023/07/19 12:07:32;;;;;;;4.22;1.75;;;;;;;22.26;57.53;101116.25;5046001;28;20044;-68
2023/07/19 12:09:58;;;;;;;6.22;1.85;;;;;;;22.19;57.08;101122.13;5031635;28;20040;-67
2023/07/19 12:12:23;;;;;;;5.25;1.70;;;;;;;22.28;57.93;101125.88;5032911;28;20377;-68
2023/07/19 12:14:49;;;;;;;2.17;1.20;;;;;;;22.16;56.20;101124.66;5031751;28;20040;-68
2023/07/19 12:17:14;;;;;;;2.47;1.38;;;;;;;22.08;58.21;101126.94;5032420;28;20108;-68
2023/07/19 12:19:40;;;;;;;2.05;1.30;;;;;;;22.24;58.10;101124.81;5033335;28;20115;-68
2023/07/19 12:22:05;;;;;;;5.57;1.65;;;;;;;22.26;56.65;101132.78;5032677;28;20461;-68
2023/07/19 12:24:30;;;;;;;4.47;1.60;;;;;;;22.31;56.79;101135.50;5032958;28;20025;-68
2023/07/19 12:26:56;;;;;;;4.97;1.75;;;;;;;22.24;55.62;101124.81;5032370;28;20033;-67
2023/07/19 12:29:21;;;;;;;6.55;1.50;;;;;;;22.17;56.76;101129.88;5032892;28;20052;-68
2023/07/19 12:31:46;;;;;;;2.65;1.17;;;;;;;22.13;57.58;101129.66;5032754;28;20143;-68
2023/07/19 12:34:12;;;;;;;7.47;1.60;;;;;;;22.04;58.30;101127.84;5032518;28;20476;-68
2023/07/19 12:36:37;;;;;;;4.18;1.48;;;;;;;21.92;58.02;101139.28;5032732;28;20088;-67
2023/07/19 12:39:02;;;;;;;3.67;1.35;;;;;;;21.83;58.75;101130.03;5032338;28;20028;-68
2023/07/19 12:41:28;;;;;;;6.57;1.92;;;;;;;21.72;60.63;101130.16;5031441;28;20461;-68
2023/07/19 12:43:54;;;;;;;4.38;1.38;;;;;;;21.69;61.78;101144.50;5032422;28;20084;-68
2023/07/19 12:46:21;;;;;;;3.00;1.50;;;;;;;21.68;61.74;101140.13;5032676;28;20467;-68
2023/07/19 12:48:48;;;;;;;6.80;2.28;;;;;;;21.76;62.20;101144.19;5032538;28;20046;-68
2023/07/19 12:51:13;;;;;;;3.88;1.58;;;;;;;21.76;60.87;101139.47;5032394;28;20039;-68
2023/07/19 12:53:39;;;;;;;4.10;1.30;;;;;;;21.72;59.37;101140.38;5032606;28;20033;-68
2023/07/19 12:56:04;;;;;;;3.88;1.50;;;;;;;21.76;59.52;101138.66;5032059;28;20127;-68
2023/07/19 12:58:30;;;;;;;5.80;1.55;;;;;;;22.01;60.12;101134.78;5032529;28;20033;-68
2023/07/19 13:00:55;;;;;;;4.00;1.50;;;;;;;22.30;58.74;101133.84;5029814;28;20457;-67
2023/07/19 13:03:21;;;;;;;6.03;1.65;;;;;;;22.35;58.32;101132.97;5032278;28;20030;-68
2023/07/19 13:05:48;;;;;;;4.32;1.52;;;;;;;22.36;59.28;101132.69;5031098;28;20036;-69
2023/07/19 13:08:14;;;;;;;6.13;1.70;;;;;;;22.40;59.15;101141.16;5032058;28;20575;-68
2023/07/19 13:10:39;;;;;;;5.03;1.63;;;;;;;22.45;59.41;101136.41;5032349;28;20029;-68
2023/07/19 13:13:04;;;;;;;4.40;1.67;;;;;;;22.45;59.04;101141.91;5032410;28;20041;-68
2023/07/19 13:15:30;;;;;;;3.38;1.48;;;;;;;22.60;58.51;101148.31;5032629;28;20053;-68
2023/07/19 13:17:55;;;;;;;5.63;1.67;;;;;;;22.87;58.43;101141.28;5032116;28;20473;-68
2023/07/19 13:20:21;;;;;;;2.70;1.55;;;;;;;22.82;58.11;101134.72;5032369;28;20105;-68
2023/07/19 13:22:46;;;;;;;3.58;1.80;;;;;;;22.89;57.10;101139.03;5031063;28;20500;-68
2023/07/19 13:25:11;;;;;;;4.30;1.88;;;;;;;22.88;57.07;101142.91;5032015;28;20057;-68
2023/07/19 13:27:37;;;;;;;4.35;1.77;;;;;;;22.87;56.41;101141.28;5032124;28;20112;-68
2023/07/19 13:30:06;;;;;;;5.00;2.13;;;;;;;22.61;54.02;101138.94;5032264;28;20457;-69
2023/07/19 13:32:32;;;;;;;3.15;1.52;;;;;;;22.59;54.80;101135.66;5032350;28;20075;-68
2023/07/19 13:34:57;;;;;;;4.75;1.65;;;;;;;22.60;54.89;101149.16;5033783;28;20485;-68
2023/07/19 13:37:23;;;;;;;9.02;1.95;;;;;;;22.50;55.05;101141.03;5036217;28;20041;-69
2023/07/19 13:39:48;;;;;;;5.93;1.90;;;;;;;22.47;56.58;101138.88;5035769;28;20029;-69
2023/07/19 13:42:13;;;;;;;4.65;1.90;;;;;;;22.36;56.12;101131.84;5033920;28;20191;-68
2023/07/19 13:44:38;;;;;;;7.05;2.00;;;;;;;22.40;55.70;101128.19;5034509;28;20029;-68
2023/07/19 13:47:04;;;;;;;5.32;1.90;;;;;;;22.46;56.56;101124.25;5035195;28;20108;-69
2023/07/19 13:49:30;;;;;;;7.65;2.30;;;;;;;22.34;55.32;101128.56;5035806;28;20052;-69
2023/07/19 13:51:55;;;;;;;4.75;1.70;;;;;;;22.32;56.49;101131.63;5035649;28;20038;-69
2023/07/19 13:54:20;;;;;;;7.72;2.35;;;;;;;22.43;55.48;101130.34;5035407;28;20369;-69
2023/07/19 13:56:45;;;;;;;6.47;1.63;;;;;;;22.67;54.63;101126.69;5033963;28;20129;-67
2023/07/19 13:59:11;;;;;;;6.25;1.63;;;;;;;22.88;53.41;101120.84;5035274;28;20079;-69
2023/07/19 14:01:37;;;;;;;8.23;2.10;;;;;;;22.94;52.26;101125.16;5033106;28;20029;-69
2023/07/19 14:04:02;;;;;;;4.53;1.50;;;;;;;22.91;50.75;101123.00;5035201;28;20025;-67
2023/07/19 14:06:27;;;;;;;4.70;1.70;;;;;;;22.99;51.19;101127.81;5035182;28;20061;-69
2023/07/19 14:08:53;;;;;;;3.67;1.73;;;;;;;23.01;51.14;101131.13;5035279;28;20064;-68
2023/07/19 14:11:18;;;;;;;4.75;1.73;;;;;;;22.93;50.93;101129.03;5035386;28;20029;-68
2023/07/19 14:13:48;;;;;;;4.40;1.67;;;;;;;22.80;50.06;101136.16;5035397;28;20029;-68
2023/07/19 14:16:17;;;;;;;3.33;1.88;;;;;;;22.65;50.72;101138.03;5035273;28;20036;-69
2023/07/19 14:18:46;;;;;;;3.78;1.70;;;;;;;22.59;51.19;101135.66;5034916;28;20033;-69
2023/07/19 14:21:12;;;;;;;4.55;2.10;;;;;;;22.61;51.82;101127.91;5034678;28;20033;-69
2023/07/19 14:23:37;;;;;;;3.17;2.15;;;;;;;22.60;51.94;101135.34;5034642;28;20519;-68
2023/07/19 14:26:03;;;;;;;4.78;1.98;;;;;;;22.64;52.71;101144.66;5034540;28;20036;-68
2023/07/19 14:28:28;;;;;;;5.60;2.15;;;;;;;22.66;52.54;101138.84;5034974;28;20457;-69
2023/07/19 14:30:53;;;;;;;5.57;1.98;;;;;;;22.46;53.26;101139.97;5034898;28;20400;-69
2023/07/19 14:33:20;;;;;;;3.97;1.95;;;;;;;22.58;53.78;101143.09;5034620;28;20041;-69
2023/07/19 14:35:45;;;;;;;5.97;2.10;;;;;;;22.58;53.06;101139.53;5034601;28;20021;-68
2023/07/19 14:38:11;;;;;;;4.03;2.30;;;;;;;22.51;52.63;101136.31;5033231;28;20087;-69
2023/07/19 14:40:37;;;;;;;4.60;2.05;;;;;;;22.65;53.40;101128.94;5034855;28;20457;-69
2023/07/19 14:43:02;;;;;;;5.10;2.15;;;;;;;22.59;51.66;101125.44;5034475;28;20423;-68
2023/07/19 14:45:30;;;;;;;4.25;1.88;;;;;;;22.65;52.86;101143.53;5034669;28;20485;-68
2023/07/19 14:47:56;;;;;;;6.75;2.25;;;;;;;22.51;52.53;101139.91;5033100;28;20041;-69
2023/07/19 14:50:21;;;;;;;7.80;2.83;;;;;;;22.44;52.79;101140.28;5042092;28;20033;-68
2023/07/19 14:52:46;;;;;;;5.78;1.67;;;;;;;22.53;53.29;101142.38;5054467;28;20014;-68
2023/07/19 14:55:13;;;;;;;2.75;1.75;;;;;;;22.48;53.18;101146.03;5036804;28;20432;-68
2023/07/19 14:57:38;;;;;;;5.93;1.95;;;;;;;22.28;53.41;101136.91;5034882;28;20282;-68
2023/07/19 15:00:09;;;;;;;3.80;1.92;;;;;;;22.28;53.86;101136.06;5034166;28;20346;-68
2023/07/19 15:02:35;;;;;;;5.88;2.20;;;;;;;22.18;54.37;101134.28;5030468;28;20298;-68
2023/07/19 15:05:00;;;;;;;4.57;1.80;;;;;;;22.16;54.07;101142.00;5034193;28;20037;-69
2023/07/19 15:07:26;;;;;;;5.38;2.10;;;;;;;22.11;54.64;101137.38;5034148;28;20037;-68
2023/07/19 15:09:51;;;;;;;5.60;2.10;;;;;;;22.05;55.82;101138.56;5034236;28;20040;-69
2023/07/19 15:12:16;;;;;;;4.63;1.85;;;;;;;22.01;56.01;101137.53;5033586;28;20083;-69
2023/07/19 15:14:42;;;;;;;6.22;2.08;;;;;;;22.15;55.89;101147.81;5033497;28;20045;-67
2023/07/19 15:17:07;;;;;;;4.00;1.90;;;;;;;22.25;55.55;101143.00;5043670;28;20032;-67
2023/07/19 15:19:32;;;;;;;8.20;2.20;;;;;;;22.34;55.22;101142.34;5044392;28;20536;-69
2023/07/19 15:21:58;;;;;;;4.78;1.75;;;;;;;22.26;54.91;101135.56;5047157;28;20472;-68
2023/07/19 15:24:23;;;;;;;3.53;1.67;;;;;;;22.60;55.71;101131.75;5046614;28;20037;-68
2023/07/19 15:26:48;;;;;;;4.82;1.50;;;;;;;22.64;52.99;101132.81;5051009;28;20373;-68
2023/07/19 15:29:14;;;;;;;4.65;1.85;;;;;;;22.56;51.82;101136.25;5052589;28;20361;-68
2023/07/19 15:31:40;;;;;;;3.60;1.35;;;;;;;22.38;52.50;101133.19;5034329;28;20029;-68
2023/07/19 15:34:05;;;;;;;3.25;1.45;;;;;;;22.37;52.66;101131.53;5037450;28;20101;-69
2023/07/19 15:36:31;;;;;;;4.90;1.70;;;;;;;22.23;53.40;101139.72;5045479;28;20121;-70
2023/07/19 15:38:57;;;;;;;1.58;1.17;;;;;;;22.18;54.50;101134.28;5033555;28;20066;-70
2023/07/19 15:41:22;;;;;;;2.70;1.50;;;;;;;22.15;54.61;101140.38;5032051;28;20033;-69
2023/07/19 15:43:47;;;;;;;2.63;1.73;;;;;;;21.99;55.40;101141.69;5036982;28;20029;-68
2023/07/19 15:46:13;;;;;;;5.43;2.03;;;;;;;21.97;55.92;101146.66;5038291;28;20026;-69
2023/07/19 15:48:38;;;;;;;2.30;1.50;;;;;;;21.85;55.55;101145.16;5046804;28;20045;-67
2023/07/19 15:51:05;;;;;;;8.55;1.80;;;;;;;21.76;55.78;101152.44;5033227;28;20025;-67
2023/07/19 15:53:36;;;;;;;7.30;2.05;;;;;;;21.71;54.52;101155.22;5032090;28;20419;-68
2023/07/19 15:56:02;;;;;;;3.28;1.40;;;;;;;21.65;54.47;101146.22;5033343;28;20076;-68
2023/07/19 15:58:27;;;;;;;9.02;2.15;;;;;;;21.68;54.87;101151.16;5032462;28;20465;-68
